sensor_id;sensor_type;location;lat;lon;timestamp;pressure;altitude;pressure_sealevel;temperature;humidity
71964;BME280;59834;52.124;5.422;2023-05-02T00:00:23;102061.59;;;10.83;89.83
71964;BME280;59834;52.124;5.422;2023-05-02T00:02:50;102058.06;;;10.84;89.80
71964;BME280;59834;52.124;5.422;2023-05-02T00:05:17;102055.56;;;10.81;89.66
71964;BME280;59834;52.124;5.422;2023-05-02T00:07:43;102054.00;;;10.77;89.75
71964;BME280;59834;52.124;5.422;2023-05-02T00:10:10;102046.00;;;10.80;89.87
71964;BME280;59834;52.124;5.422;2023-05-02T00:12:37;102058.19;;;10.81;89.53
71964;BME280;59834;52.124;5.422;2023-05-02T00:15:04;102064.25;;;10.82;90.18
71964;BME280;59834;52.124;5.422;2023-05-02T00:17:32;102057.13;;;10.85;90.40
71964;BME280;59834;52.124;5.422;2023-05-02T00:19:58;102056.22;;;10.87;89.82
71964;BME280;59834;52.124;5.422;2023-05-02T00:22:25;102058.06;;;10.84;89.77
71964;BME280;59834;52.124;5.422;2023-05-02T00:24:58;102057.19;;;10.84;89.31
71964;BME280;59834;52.124;5.422;2023-05-02T00:27:24;102053.59;;;10.87;89.64
71964;BME280;59834;52.124;5.422;2023-05-02T00:29:52;102060.66;;;10.84;89.74
71964;BME280;59834;52.124;5.422;2023-05-02T00:32:19;102066.84;;;10.83;89.21
71964;BME280;59834;52.124;5.422;2023-05-02T00:34:46;102064.22;;;10.83;89.62
71964;BME280;59834;52.124;5.422;2023-05-02T00:37:12;102066.84;;;10.83;89.33
71964;BME280;59834;52.124;5.422;2023-05-02T00:39:42;102064.34;;;10.80;90.07
71964;BME280;59834;52.124;5.422;2023-05-02T00:42:08;102066.03;;;10.81;89.98
71964;BME280;59834;52.124;5.422;2023-05-02T00:44:35;102061.59;;;10.83;89.22
71964;BME280;59834;52.124;5.422;2023-05-02T00:47:02;102067.59;;;10.85;89.63
71964;BME280;59834;52.124;5.422;2023-05-02T00:49:29;102065.06;;;10.84;89.74
71964;BME280;59834;52.124;5.422;2023-05-02T00:51:57;102077.44;;;10.80;90.54
71964;BME280;59834;52.124;5.422;2023-05-02T00:54:23;102071.53;;;10.75;90.76
71964;BME280;59834;52.124;5.422;2023-05-02T00:56:50;102083.00;;;10.73;91.80
71964;BME280;59834;52.124;5.422;2023-05-02T00:59:16;102082.09;;;10.74;91.22
71964;BME280;59834;52.124;5.422;2023-05-02T01:04:59;102087.34;;;10.74;92.18
71964;BME280;59834;52.124;5.422;2023-05-02T01:07:53;102097.09;;;10.70;92.56
71964;BME280;59834;52.124;5.422;2023-05-02T01:10:41;102097.94;;;10.71;92.42
71964;BME280;59834;52.124;5.422;2023-05-02T01:13:17;102108.47;;;10.69;92.53
71964;BME280;59834;52.124;5.422;2023-05-02T01:15:47;102096.38;;;10.67;92.62
71964;BME280;59834;52.124;5.422;2023-05-02T01:18:20;102097.28;;;10.66;93.03
71964;BME280;59834;52.124;5.422;2023-05-02T01:20:51;102097.38;;;10.64;93.72
71964;BME280;59834;52.124;5.422;2023-05-02T01:23:27;102104.38;;;10.64;93.81
71964;BME280;59834;52.124;5.422;2023-05-02T01:26:05;102111.69;;;10.55;92.94
71964;BME280;59834;52.124;5.422;2023-05-02T01:28:55;102111.94;;;10.49;92.71
71964;BME280;59834;52.124;5.422;2023-05-02T01:31:24;102108.63;;;10.46;90.81
71964;BME280;59834;52.124;5.422;2023-05-02T01:33:54;102115.88;;;10.39;90.25
71964;BME280;59834;52.124;5.422;2023-05-02T01:36:24;102114.25;;;10.36;89.81
71964;BME280;59834;52.124;5.422;2023-05-02T01:38:53;102124.00;;;10.33;90.58
71964;BME280;59834;52.124;5.422;2023-05-02T01:41:24;102128.50;;;10.29;89.62
71964;BME280;59834;52.124;5.422;2023-05-02T01:43:53;102130.13;;;10.32;90.16
71964;BME280;59834;52.124;5.422;2023-05-02T01:46:21;102126.75;;;10.30;90.08
71964;BME280;59834;52.124;5.422;2023-05-02T01:48:49;102132.00;;;10.30;89.89
71964;BME280;59834;52.124;5.422;2023-05-02T01:51:17;102138.13;;;10.29;89.75
71964;BME280;59834;52.124;5.422;2023-05-02T01:53:47;102138.97;;;10.29;89.37
71964;BME280;59834;52.124;5.422;2023-05-02T01:56:17;102153.91;;;10.27;89.59
71964;BME280;59834;52.124;5.422;2023-05-02T01:58:46;102154.03;;;10.23;89.47
71964;BME280;59834;52.124;5.422;2023-05-02T02:01:17;102156.13;;;10.14;89.47
71964;BME280;59834;52.124;5.422;2023-05-02T02:03:45;102161.47;;;10.11;89.70
71964;BME280;59834;52.124;5.422;2023-05-02T02:06:13;102155.41;;;10.11;89.12
71964;BME280;59834;52.124;5.422;2023-05-02T02:08:40;102153.59;;;10.13;89.41
71964;BME280;59834;52.124;5.422;2023-05-02T02:11:10;102162.44;;;10.09;88.53
71964;BME280;59834;52.124;5.422;2023-05-02T02:13:43;102161.59;;;10.08;89.00
71964;BME280;59834;52.124;5.422;2023-05-02T02:16:22;102156.31;;;10.10;88.31
71964;BME280;59834;52.124;5.422;2023-05-02T02:18:55;102157.22;;;10.09;88.97
71964;BME280;59834;52.124;5.422;2023-05-02T02:21:24;102163.38;;;10.08;88.55
71964;BME280;59834;52.124;5.422;2023-05-02T02:23:56;102174.75;;;10.07;87.89
71964;BME280;59834;52.124;5.422;2023-05-02T02:26:25;102175.72;;;10.04;88.18
71964;BME280;59834;52.124;5.422;2023-05-02T02:28:52;102190.69;;;10.01;88.02
71964;BME280;59834;52.124;5.422;2023-05-02T02:31:19;102182.97;;;9.98;88.29
71964;BME280;59834;52.124;5.422;2023-05-02T02:33:45;102190.81;;;9.98;87.67
71964;BME280;59834;52.124;5.422;2023-05-02T02:36:33;102188.31;;;9.95;87.20
71964;BME280;59834;52.124;5.422;2023-05-02T02:39:11;102194.47;;;9.94;87.16
71964;BME280;59834;52.124;5.422;2023-05-02T02:42:03;102197.06;;;9.94;nan
71964;BME280;59834;52.124;5.422;2023-05-02T02:44:51;102197.13;;;9.92;85.81
71964;BME280;59834;52.124;5.422;2023-05-02T02:47:31;102206.81;;;9.90;85.75
71964;BME280;59834;52.124;5.422;2023-05-02T02:53:06;102206.97;;;9.85;84.99
71964;BME280;59834;52.124;5.422;2023-05-02T02:55:57;102201.84;;;9.82;84.95
71964;BME280;59834;52.124;5.422;2023-05-02T03:01:15;102208.97;;;9.79;84.62
71964;BME280;59834;52.124;5.422;2023-05-02T03:03:43;102209.88;;;9.78;85.18
71964;BME280;59834;52.124;5.422;2023-05-02T03:06:10;102216.88;;;9.77;85.09
71964;BME280;59834;52.124;5.422;2023-05-02T03:08:43;102222.91;;;9.79;84.47
71964;BME280;59834;52.124;5.422;2023-05-02T03:11:10;102220.31;;;9.79;84.26
71964;BME280;59834;52.124;5.422;2023-05-02T03:13:36;102226.50;;;9.77;84.91
71964;BME280;59834;52.124;5.422;2023-05-02T03:16:21;102230.81;;;9.78;84.98
71964;BME280;59834;52.124;5.422;2023-05-02T03:18:50;102235.06;;;9.80;85.34
71964;BME280;59834;52.124;5.422;2023-05-02T03:21:16;102242.00;;;9.81;85.44
71964;BME280;59834;52.124;5.422;2023-05-02T03:23:43;102242.09;;;9.78;84.93
71964;BME280;59834;52.124;5.422;2023-05-02T03:26:09;102235.19;;;9.77;84.55
71964;BME280;59834;52.124;5.422;2023-05-02T03:28:36;102241.44;;;9.73;84.57
71964;BME280;59834;52.124;5.422;2023-05-02T03:31:03;102240.63;;;9.71;84.76
71964;BME280;59834;52.124;5.422;2023-05-02T03:33:30;102248.59;;;9.68;85.25
71964;BME280;59834;52.124;5.422;2023-05-02T03:35:57;102253.81;;;9.68;84.93
71964;BME280;59834;52.124;5.422;2023-05-02T03:38:24;102253.91;;;9.66;84.98
71964;BME280;59834;52.124;5.422;2023-05-02T03:40:51;102254.97;;;9.61;84.43
71964;BME280;59834;52.124;5.422;2023-05-02T03:43:17;102258.59;;;9.57;84.99
71964;BME280;59834;52.124;5.422;2023-05-02T03:45:44;102262.91;;;9.58;84.41
71964;BME280;59834;52.124;5.422;2023-05-02T03:48:13;102263.75;;;9.58;84.62
71964;BME280;59834;52.124;5.422;2023-05-02T03:50:40;102268.94;;;9.60;84.71
71964;BME280;59834;52.124;5.422;2023-05-02T03:53:06;102264.59;;;9.59;85.23
71964;BME280;59834;52.124;5.422;2023-05-02T03:55:39;102273.44;;;9.56;84.73
71964;BME280;59834;52.124;5.422;2023-05-02T03:58:06;102269.22;;;9.52;84.61
71964;BME280;59834;52.124;5.422;2023-05-02T04:00:33;102274.63;;;9.48;84.31
71964;BME280;59834;52.124;5.422;2023-05-02T04:03:00;102272.06;;;9.46;85.26
71964;BME280;59834;52.124;5.422;2023-05-02T04:05:27;102280.91;;;9.42;85.36
71964;BME280;59834;52.124;5.422;2023-05-02T04:07:57;102281.78;;;9.42;85.07
71964;BME280;59834;52.124;5.422;2023-05-02T04:10:23;102282.56;;;9.44;85.21
71964;BME280;59834;52.124;5.422;2023-05-02T04:12:50;102288.75;;;9.42;85.52
71964;BME280;59834;52.124;5.422;2023-05-02T04:15:17;102283.69;;;9.37;84.55
71964;BME280;59834;52.124;5.422;2023-05-02T04:17:43;102289.88;;;9.35;84.48
71964;BME280;59834;52.124;5.422;2023-05-02T04:20:10;102295.19;;;9.32;83.73
71964;BME280;59834;52.124;5.422;2023-05-02T04:22:37;102292.69;;;9.29;83.93
71964;BME280;59834;52.124;5.422;2023-05-02T04:25:05;102295.38;;;9.27;83.81
71964;BME280;59834;52.124;5.422;2023-05-02T04:27:33;102302.28;;;9.28;82.62
71964;BME280;59834;52.124;5.422;2023-05-02T04:29:59;102303.13;;;9.29;82.56
71964;BME280;59834;52.124;5.422;2023-05-02T04:32:26;102308.25;;;9.32;82.71
71964;BME280;59834;52.124;5.422;2023-05-02T04:34:53;102310.03;;;9.31;82.17
71964;BME280;59834;52.124;5.422;2023-05-02T04:37:19;102322.22;;;9.32;82.40
71964;BME280;59834;52.124;5.422;2023-05-02T04:39:46;102319.63;;;9.31;82.63
71964;BME280;59834;52.124;5.422;2023-05-02T04:42:13;102339.88;;;9.24;83.43
71964;BME280;59834;52.124;5.422;2023-05-02T04:44:39;102337.34;;;9.23;83.61
71964;BME280;59834;52.124;5.422;2023-05-02T04:47:05;102343.78;;;9.12;82.44
71964;BME280;59834;52.124;5.422;2023-05-02T04:49:32;102349.13;;;9.08;82.86
71964;BME280;59834;52.124;5.422;2023-05-02T04:51:58;102362.25;;;9.06;81.77
71964;BME280;59834;52.124;5.422;2023-05-02T04:54:25;102362.47;;;9.00;80.87
71964;BME280;59834;52.124;5.422;2023-05-02T04:56:52;102363.38;;;8.99;80.89
71964;BME280;59834;52.124;5.422;2023-05-02T04:59:18;102368.53;;;9.01;81.65
71964;BME280;59834;52.124;5.422;2023-05-02T05:01:45;102362.50;;;8.98;80.69
71964;BME280;59834;52.124;5.422;2023-05-02T05:04:12;102372.09;;;8.98;80.72
71964;BME280;59834;52.124;5.422;2023-05-02T05:06:41;102371.22;;;8.99;80.71
71964;BME280;59834;52.124;5.422;2023-05-02T05:09:08;102375.50;;;9.00;80.99
71964;BME280;59834;52.124;5.422;2023-05-02T05:11:34;102383.25;;;9.03;80.43
71964;BME280;59834;52.124;5.422;2023-05-02T05:14:01;102393.72;;;9.02;80.17
71964;BME280;59834;52.124;5.422;2023-05-02T05:16:29;102392.84;;;9.03;79.67
71964;BME280;59834;52.124;5.422;2023-05-02T05:18:56;102384.97;;;9.04;78.98
71964;BME280;59834;52.124;5.422;2023-05-02T05:21:22;102401.47;;;9.05;79.74
71964;BME280;59834;52.124;5.422;2023-05-02T05:23:49;102393.63;;;9.05;79.19
71964;BME280;59834;52.124;5.422;2023-05-02T05:26:16;102396.31;;;9.03;79.11
71964;BME280;59834;52.124;5.422;2023-05-02T05:28:43;102402.53;;;8.99;78.60
71964;BME280;59834;52.124;5.422;2023-05-02T05:31:11;102409.56;;;8.97;78.25
71964;BME280;59834;52.124;5.422;2023-05-02T05:33:42;102409.81;;;8.89;78.74
71964;BME280;59834;52.124;5.422;2023-05-02T05:36:11;102414.22;;;8.87;78.40
71964;BME280;59834;52.124;5.422;2023-05-02T05:38:38;102421.34;;;8.82;78.91
71964;BME280;59834;52.124;5.422;2023-05-02T05:41:05;102417.94;;;8.80;78.99
71964;BME280;59834;52.124;5.422;2023-05-02T05:43:34;102430.97;;;8.80;78.64
71964;BME280;59834;52.124;5.422;2023-05-02T05:46:03;102431.81;;;8.82;78.67
71964;BME280;59834;52.124;5.422;2023-05-02T05:48:30;102435.97;;;8.88;77.97
71964;BME280;59834;52.124;5.422;2023-05-02T05:50:56;102436.94;;;8.85;78.02
71964;BME280;59834;52.124;5.422;2023-05-02T05:53:23;102444.78;;;8.84;78.64
71964;BME280;59834;52.124;5.422;2023-05-02T05:55:49;102465.50;;;8.90;77.69
71964;BME280;59834;52.124;5.422;2023-05-02T05:58:15;102460.31;;;8.88;78.05
71964;BME280;59834;52.124;5.422;2023-05-02T06:00:42;102471.75;;;8.84;77.45
71964;BME280;59834;52.124;5.422;2023-05-02T06:03:09;102466.41;;;8.89;77.43
71964;BME280;59834;52.124;5.422;2023-05-02T06:05:37;102473.19;;;8.94;77.47
71964;BME280;59834;52.124;5.422;2023-05-02T06:08:04;102471.22;;;9.03;77.57
71964;BME280;59834;52.124;5.422;2023-05-02T06:10:31;102471.13;;;9.06;78.03
71964;BME280;59834;52.124;5.422;2023-05-02T06:12:58;102471.78;;;9.12;76.85
71964;BME280;59834;52.124;5.422;2023-05-02T06:15:25;102476.03;;;9.15;76.81
71964;BME280;59834;52.124;5.422;2023-05-02T06:17:51;102478.34;;;9.24;77.11
71964;BME280;59834;52.124;5.422;2023-05-02T06:20:19;102487.69;;;9.33;76.59
71964;BME280;59834;52.124;5.422;2023-05-02T06:22:45;102488.19;;;9.44;75.84
71964;BME280;59834;52.124;5.422;2023-05-02T06:25:12;102491.34;;;9.54;75.23
71964;BME280;59834;52.124;5.422;2023-05-02T06:27:39;102492.91;;;9.59;74.16
71964;BME280;59834;52.124;5.422;2023-05-02T06:30:06;102500.53;;;9.65;74.52
71964;BME280;59834;52.124;5.422;2023-05-02T06:32:33;102500.13;;;9.78;74.24
71964;BME280;59834;52.124;5.422;2023-05-02T06:34:59;102504.91;;;9.65;72.33
71964;BME280;59834;52.124;5.422;2023-05-02T06:37:26;102506.84;;;9.60;72.55
71964;BME280;59834;52.124;5.422;2023-05-02T06:39:52;102515.38;;;9.65;72.21
71964;BME280;59834;52.124;5.422;2023-05-02T06:42:20;102527.50;;;9.67;70.87
71964;BME280;59834;52.124;5.422;2023-05-02T06:44:46;102523.47;;;9.57;71.58
71964;BME280;59834;52.124;5.422;2023-05-02T06:47:13;102514.78;;;9.57;71.49
71964;BME280;59834;52.124;5.422;2023-05-02T06:49:40;102530.56;;;9.54;72.05
71964;BME280;59834;52.124;5.422;2023-05-02T06:52:06;102534.47;;;9.40;72.05
71964;BME280;59834;52.124;5.422;2023-05-02T06:54:33;102548.56;;;9.35;72.30
71964;BME280;59834;52.124;5.422;2023-05-02T06:56:59;102544.41;;;9.29;72.41
71964;BME280;59834;52.124;5.422;2023-05-02T06:59:27;102557.56;;;9.26;72.21
71964;BME280;59834;52.124;5.422;2023-05-02T07:01:54;102556.75;;;9.24;72.40
71964;BME280;59834;52.124;5.422;2023-05-02T07:04:20;102567.19;;;9.24;73.12
71964;BME280;59834;52.124;5.422;2023-05-02T07:06:47;102564.56;;;9.26;72.56
71964;BME280;59834;52.124;5.422;2023-05-02T07:09:14;102568.00;;;9.26;72.87
71964;BME280;59834;52.124;5.422;2023-05-02T07:11:40;102579.22;;;9.30;72.46
71964;BME280;59834;52.124;5.422;2023-05-02T07:14:07;102580.56;;;9.43;73.16
71964;BME280;59834;52.124;5.422;2023-05-02T07:16:34;102575.28;;;9.44;72.36
71964;BME280;59834;52.124;5.422;2023-05-02T07:19:01;102576.00;;;9.50;72.31
71964;BME280;59834;52.124;5.422;2023-05-02T07:21:29;102587.59;;;9.41;73.05
71964;BME280;59834;52.124;5.422;2023-05-02T07:23:57;102587.41;;;9.47;73.00
71964;BME280;59834;52.124;5.422;2023-05-02T07:26:24;102593.66;;;9.41;70.67
71964;BME280;59834;52.124;5.422;2023-05-02T07:28:52;102600.13;;;9.30;71.19
71964;BME280;59834;52.124;5.422;2023-05-02T07:31:21;102597.47;;;9.31;70.90
71964;BME280;59834;52.124;5.422;2023-05-02T07:33:47;102605.38;;;9.28;71.53
71964;BME280;59834;52.124;5.422;2023-05-02T07:36:14;102597.88;;;9.45;71.90
71964;BME280;59834;52.124;5.422;2023-05-02T07:38:40;102596.09;;;9.48;71.56
71964;BME280;59834;52.124;5.422;2023-05-02T07:41:07;102602.06;;;9.53;71.61
71964;BME280;59834;52.124;5.422;2023-05-02T07:43:35;102605.28;;;9.61;71.41
71964;BME280;59834;52.124;5.422;2023-05-02T07:46:05;102606.97;;;9.62;70.37
71964;BME280;59834;52.124;5.422;2023-05-02T07:48:32;102610.69;;;9.55;70.62
71964;BME280;59834;52.124;5.422;2023-05-02T07:51:06;102614.31;;;9.51;70.10
71964;BME280;59834;52.124;5.422;2023-05-02T07:53:33;102614.63;;;9.68;71.10
71964;BME280;59834;52.124;5.422;2023-05-02T07:56:02;102616.97;;;9.77;69.34
71964;BME280;59834;52.124;5.422;2023-05-02T07:58:28;102621.44;;;9.74;69.33
71964;BME280;59834;52.124;5.422;2023-05-02T08:00:56;102629.03;;;9.81;69.20
71964;BME280;59834;52.124;5.422;2023-05-02T08:03:23;102626.88;;;9.94;68.65
71964;BME280;59834;52.124;5.422;2023-05-02T08:05:50;102633.47;;;10.06;67.13
71964;BME280;59834;52.124;5.422;2023-05-02T08:08:16;102636.53;;;9.92;67.19
71964;BME280;59834;52.124;5.422;2023-05-02T08:10:43;102637.88;;;9.77;67.62
71964;BME280;59834;52.124;5.422;2023-05-02T08:13:11;102637.50;;;9.61;67.15
71964;BME280;59834;52.124;5.422;2023-05-02T08:15:37;102639.44;;;9.55;67.36
71964;BME280;59834;52.124;5.422;2023-05-02T08:18:04;102640.97;;;9.62;67.77
71964;BME280;59834;52.124;5.422;2023-05-02T08:20:32;102645.75;;;9.76;67.30
71964;BME280;59834;52.124;5.422;2023-05-02T08:22:59;102645.66;;;9.79;67.01
71964;BME280;59834;52.124;5.422;2023-05-02T08:25:27;102654.00;;;9.91;67.01
71964;BME280;59834;52.124;5.422;2023-05-02T08:27:56;102656.78;;;10.13;66.06
71964;BME280;59834;52.124;5.422;2023-05-02T08:30:24;102654.06;;;10.17;65.38
71964;BME280;59834;52.124;5.422;2023-05-02T08:32:51;102655.13;;;10.11;65.16
71964;BME280;59834;52.124;5.422;2023-05-02T08:35:18;102651.28;;;10.21;63.86
71964;BME280;59834;52.124;5.422;2023-05-02T08:37:45;102658.97;;;10.27;63.03
71964;BME280;59834;52.124;5.422;2023-05-02T08:40:13;102663.81;;;10.40;62.92
71964;BME280;59834;52.124;5.422;2023-05-02T08:42:41;102654.75;;;10.50;61.53
71964;BME280;59834;52.124;5.422;2023-05-02T08:45:12;102661.47;;;10.57;62.17
71964;BME280;59834;52.124;5.422;2023-05-02T08:47:43;102672.38;;;10.70;61.17
71964;BME280;59834;52.124;5.422;2023-05-02T08:50:11;102667.19;;;10.68;60.73
71964;BME280;59834;52.124;5.422;2023-05-02T08:52:38;102679.59;;;10.63;60.96
71964;BME280;59834;52.124;5.422;2023-05-02T08:55:06;102684.59;;;10.44;60.31
71964;BME280;59834;52.124;5.422;2023-05-02T08:57:37;102680.78;;;10.53;60.29
71964;BME280;59834;52.124;5.422;2023-05-02T09:00:06;102679.59;;;10.63;59.05
71964;BME280;59834;52.124;5.422;2023-05-02T09:05:40;102678.81;;;11.33;58.95
71964;BME280;59834;52.124;5.422;2023-05-02T09:08:10;102684.31;;;11.27;57.08
71964;BME280;59834;52.124;5.422;2023-05-02T09:10:38;102684.00;;;11.35;57.23
71964;BME280;59834;52.124;5.422;2023-05-02T09:16:07;102692.94;;;11.52;55.48
71964;BME280;59834;52.124;5.422;2023-05-02T09:18:39;102682.09;;;11.62;54.39
71964;BME280;59834;52.124;5.422;2023-05-02T09:21:11;102691.16;;;11.53;54.42
71964;BME280;59834;52.124;5.422;2023-05-02T09:23:49;102684.69;;;11.40;55.17
71964;BME280;59834;52.124;5.422;2023-05-02T09:28:54;102695.56;;;11.52;53.20
71964;BME280;59834;52.124;5.422;2023-05-02T09:31:26;102698.56;;;11.65;52.29
71964;BME280;59834;52.124;5.422;2023-05-02T09:34:15;102700.69;;;11.55;51.39
71964;BME280;59834;52.124;5.422;2023-05-02T09:37:10;102704.25;;;11.54;51.79
71964;BME280;59834;52.124;5.422;2023-05-02T09:40:07;102708.97;;;11.68;50.73
71964;BME280;59834;52.124;5.422;2023-05-02T09:42:39;102712.63;;;11.64;50.33
71964;BME280;59834;52.124;5.422;2023-05-02T09:45:07;102706.75;;;11.79;50.19
71964;BME280;59834;52.124;5.422;2023-05-02T09:47:40;102718.19;;;11.78;49.23
71964;BME280;59834;52.124;5.422;2023-05-02T09:50:07;102716.84;;;11.45;49.95
71964;BME280;59834;52.124;5.422;2023-05-02T09:52:34;102715.16;;;11.89;49.11
71964;BME280;59834;52.124;5.422;2023-05-02T09:55:19;102722.88;;;11.94;50.03
71964;BME280;59834;52.124;5.422;2023-05-02T09:57:47;102726.97;;;11.77;49.48
71964;BME280;59834;52.124;5.422;2023-05-02T10:00:16;102714.25;;;12.12;48.83
71964;BME280;59834;52.124;5.422;2023-05-02T10:02:47;102720.84;;;12.44;47.01
71964;BME280;59834;52.124;5.422;2023-05-02T10:05:15;102704.63;;;12.96;46.30
71964;BME280;59834;52.124;5.422;2023-05-02T10:07:44;102713.97;;;12.83;46.81
71964;BME280;59834;52.124;5.422;2023-05-02T10:10:17;102709.41;;;12.45;48.25
71964;BME280;59834;52.124;5.422;2023-05-02T10:12:46;102712.59;;;12.32;47.81
71964;BME280;59834;52.124;5.422;2023-05-02T10:15:15;102714.19;;;12.36;46.72
71964;BME280;59834;52.124;5.422;2023-05-02T10:17:47;102731.28;;;12.02;48.65
71964;BME280;59834;52.124;5.422;2023-05-02T10:20:21;102734.91;;;12.21;48.77
71964;BME280;59834;52.124;5.422;2023-05-02T10:22:49;102742.22;;;12.35;48.57
71964;BME280;59834;52.124;5.422;2023-05-02T10:25:17;102744.06;;;12.11;48.78
71964;BME280;59834;52.124;5.422;2023-05-02T10:27:46;102739.03;;;12.05;48.08
71964;BME280;59834;52.124;5.422;2023-05-02T10:30:14;102744.50;;;12.65;46.74
71964;BME280;59834;52.124;5.422;2023-05-02T10:32:43;102744.69;;;12.60;46.23
71964;BME280;59834;52.124;5.422;2023-05-02T10:35:12;102748.84;;;12.44;47.26
71964;BME280;59834;52.124;5.422;2023-05-02T10:37:41;102739.91;;;12.27;47.42
71964;BME280;59834;52.124;5.422;2023-05-02T10:40:12;102746.78;;;12.30;47.87
71964;BME280;59834;52.124;5.422;2023-05-02T10:42:43;102752.31;;;12.66;46.44
71964;BME280;59834;52.124;5.422;2023-05-02T10:45:12;102751.44;;;12.45;46.58
71964;BME280;59834;52.124;5.422;2023-05-02T10:53:34;102751.59;;;12.83;47.21
71964;BME280;59834;52.124;5.422;2023-05-02T10:56:25;102747.25;;;13.03;46.69
71964;BME280;59834;52.124;5.422;2023-05-02T10:59:33;102749.72;;;13.47;45.68
71964;BME280;59834;52.124;5.422;2023-05-02T11:02:00;102751.00;;;12.97;45.49
71964;BME280;59834;52.124;5.422;2023-05-02T11:07:35;102755.16;;;12.18;47.59
71964;BME280;59834;52.124;5.422;2023-05-02T11:12:56;102763.09;;;12.81;47.01
71964;BME280;59834;52.124;5.422;2023-05-02T11:18:06;102733.91;;;13.07;46.29
71964;BME280;59834;52.124;5.422;2023-05-02T11:20:40;102759.94;;;12.93;45.81
71964;BME280;59834;52.124;5.422;2023-05-02T11:23:27;102767.00;;;12.70;46.15
71964;BME280;59834;52.124;5.422;2023-05-02T11:25:56;102772.28;;;12.70;46.04
71964;BME280;59834;52.124;5.422;2023-05-02T11:28:40;102769.00;;;12.65;46.49
71964;BME280;59834;52.124;5.422;2023-05-02T11:33:59;102766.00;;;12.95;44.06
71964;BME280;59834;52.124;5.422;2023-05-02T11:36:30;102769.53;;;12.94;45.67
71964;BME280;59834;52.124;5.422;2023-05-02T11:39:18;102764.88;;;13.41;46.52
71964;BME280;59834;52.124;5.422;2023-05-02T11:41:46;102771.00;;;13.61;43.56
71964;BME280;59834;52.124;5.422;2023-05-02T11:44:18;102761.38;;;13.41;44.68
71964;BME280;59834;52.124;5.422;2023-05-02T11:46:45;102774.91;;;12.91;44.94
71964;BME280;59834;52.124;5.422;2023-05-02T11:49:12;102763.88;;;13.03;45.27
71964;BME280;59834;52.124;5.422;2023-05-02T11:51:40;102769.56;;;13.35;44.94
71964;BME280;59834;52.124;5.422;2023-05-02T11:54:19;102768.94;;;13.49;45.62
71964;BME280;59834;52.124;5.422;2023-05-02T11:57:05;102789.09;;;13.29;46.12
71964;BME280;59834;52.124;5.422;2023-05-02T11:59:52;102785.50;;;13.10;45.83
71964;BME280;59834;52.124;5.422;2023-05-02T12:02:34;102782.00;;;13.50;46.57
71964;BME280;59834;52.124;5.422;2023-05-02T12:05:26;102787.28;;;13.50;45.87
71964;BME280;59834;52.124;5.422;2023-05-02T12:07:55;102786.09;;;13.37;44.16
71964;BME280;59834;52.124;5.422;2023-05-02T12:10:34;102785.47;;;13.32;45.22
71964;BME280;59834;52.124;5.422;2023-05-02T12:13:10;102784.69;;;13.30;45.22
71964;BME280;59834;52.124;5.422;2023-05-02T12:15:38;102791.88;;;13.04;45.01
71964;BME280;59834;52.124;5.422;2023-05-02T12:18:05;102795.44;;;13.03;45.44
71964;BME280;59834;52.124;5.422;2023-05-02T12:20:33;102817.31;;;12.39;46.28
71964;BME280;59834;52.124;5.422;2023-05-02T12:23:00;102816.88;;;12.06;46.81
71964;BME280;59834;52.124;5.422;2023-05-02T12:25:38;102816.25;;;12.45;46.31
71964;BME280;59834;52.124;5.422;2023-05-02T12:28:07;102813.00;;;12.81;45.19
71964;BME280;59834;52.124;5.422;2023-05-02T12:30:37;102806.28;;;12.95;45.03
71964;BME280;59834;52.124;5.422;2023-05-02T12:33:06;102810.88;;;13.11;45.52
71964;BME280;59834;52.124;5.422;2023-05-02T12:35:34;102820.41;;;12.93;44.57
71964;BME280;59834;52.124;5.422;2023-05-02T12:38:21;102822.66;;;13.02;45.57
71964;BME280;59834;52.124;5.422;2023-05-02T12:40:56;102827.69;;;12.86;45.57
71964;BME280;59834;52.124;5.422;2023-05-02T12:43:24;102825.78;;;12.90;45.68
71964;BME280;59834;52.124;5.422;2023-05-02T12:46:10;102821.00;;;13.00;44.69
71964;BME280;59834;52.124;5.422;2023-05-02T12:48:38;102830.00;;;13.14;44.30
71964;BME280;59834;52.124;5.422;2023-05-02T12:51:30;102826.19;;;13.01;44.83
71964;BME280;59834;52.124;5.422;2023-05-02T12:54:02;102833.00;;;12.85;44.07
71964;BME280;59834;52.124;5.422;2023-05-02T12:56:29;102836.06;;;13.16;44.67
71964;BME280;59834;52.124;5.422;2023-05-02T12:59:03;102837.50;;;13.24;44.02
71964;BME280;59834;52.124;5.422;2023-05-02T13:01:33;102837.63;;;13.00;44.02
71964;BME280;59834;52.124;5.422;2023-05-02T13:04:02;102842.19;;;12.74;45.22
71964;BME280;59834;52.124;5.422;2023-05-02T13:06:29;102842.81;;;12.81;44.30
71964;BME280;59834;52.124;5.422;2023-05-02T13:08:58;102838.28;;;12.85;44.40
71964;BME280;59834;52.124;5.422;2023-05-02T13:11:25;102830.44;;;12.83;44.44
71964;BME280;59834;52.124;5.422;2023-05-02T13:13:52;102830.91;;;12.93;43.86
71964;BME280;59834;52.124;5.422;2023-05-02T13:16:21;102839.88;;;13.09;43.78
71964;BME280;59834;52.124;5.422;2023-05-02T13:18:48;102833.50;;;12.94;45.03
71964;BME280;59834;52.124;5.422;2023-05-02T13:21:15;102836.63;;;13.03;44.11
71964;BME280;59834;52.124;5.422;2023-05-02T13:23:41;102826.16;;;12.81;44.27
71964;BME280;59834;52.124;5.422;2023-05-02T13:26:10;102837.91;;;12.72;45.05
71964;BME280;59834;52.124;5.422;2023-05-02T13:28:37;102835.09;;;12.77;45.29
71964;BME280;59834;52.124;5.422;2023-05-02T13:31:04;102834.13;;;12.79;45.28
71964;BME280;59834;52.124;5.422;2023-05-02T13:33:32;102839.38;;;12.79;44.42
71964;BME280;59834;52.124;5.422;2023-05-02T13:35:59;102851.38;;;12.64;44.88
71964;BME280;59834;52.124;5.422;2023-05-02T13:38:28;102843.53;;;12.63;44.96
71964;BME280;59834;52.124;5.422;2023-05-02T13:41:00;102845.34;;;12.61;45.21
71964;BME280;59834;52.124;5.422;2023-05-02T13:43:27;102844.84;;;12.95;45.62